Time;durP1;ratioP1;P1;durP2;ratioP2;P2;SDS_P1;SDS_P2;PMS_P1;PMS_P2;Temp;Humidity;BMP_temperature;BMP_pressure;BME280_temperature;BME280_humidity;BME280_pressure;Samples;Min_cycle;Max_cycle;Signal;HPM_P1;HPM_P2
2023/12/14 00:01:46;;;;;;;67.82;34.05;;;;;;;6.49;94.84;99156.50;5139037;27;20248;-64
2023/12/14 00:04:12;;;;;;;68.47;34.25;;;;;;;6.47;93.68;99167.16;5139602;27;20062;-66
2023/12/14 00:06:37;;;;;;;64.05;34.40;;;;;;;6.35;92.69;99168.34;5139772;27;20042;-66
2023/12/14 00:09:03;;;;;;;69.25;35.45;;;;;;;6.26;92.96;99158.72;5139775;27;20263;-64
2023/12/14 00:11:28;;;;;;;72.10;37.70;;;;;;;5.84;93.99;99142.59;5139290;27;20038;-64
2023/12/14 00:13:54;;;;;;;70.60;34.55;;;;;;;5.81;94.13;99154.25;5139183;27;20382;-64
2023/12/14 00:16:19;;;;;;;61.55;34.72;;;;;;;5.80;93.70;99147.31;5140266;27;20043;-63
2023/12/14 00:18:45;;;;;;;63.83;33.47;;;;;;;5.75;95.30;99160.91;5139562;27;20104;-67
2023/12/14 00:21:10;;;;;;;74.47;38.08;;;;;;;5.81;96.11;99177.06;5139012;27;20039;-64
2023/12/14 00:23:36;;;;;;;77.38;40.45;;;;;;;5.80;96.38;99165.72;5139170;27;20034;-64
2023/12/14 00:26:01;;;;;;;83.13;43.65;;;;;;;5.82;98.38;99161.16;5139777;27;20046;-66
2023/12/14 00:28:27;;;;;;;83.82;43.88;;;;;;;5.93;97.51;99165.41;5140043;27;20050;-66
2023/12/14 00:30:52;;;;;;;93.20;45.83;;;;;;;5.93;98.10;99162.78;5139692;27;20031;-64
2023/12/14 00:33:18;;;;;;;82.40;42.25;;;;;;;5.94;98.74;99164.44;5139032;27;20027;-64
2023/12/14 00:35:43;;;;;;;76.55;40.83;;;;;;;6.03;99.28;99163.56;5139111;27;20095;-64
2023/12/14 00:38:08;;;;;;;67.35;36.20;;;;;;;6.12;97.03;99152.16;5139285;27;20047;-65
2023/12/14 00:40:34;;;;;;;69.50;38.50;;;;;;;6.08;95.41;99163.94;5139513;27;20038;-64
2023/12/14 00:42:59;;;;;;;76.90;40.17;;;;;;;6.11;96.72;99168.06;5138990;27;20064;-66
2023/12/14 00:45:25;;;;;;;76.97;38.45;;;;;;;6.18;96.54;99156.81;5139621;27;20084;-65
2023/12/14 00:47:50;;;;;;;65.20;34.70;;;;;;;6.05;95.09;99172.13;5139856;27;20050;-63
2023/12/14 00:50:16;;;;;;;80.20;41.70;;;;;;;6.12;94.32;99169.72;5139489;27;20049;-64
2023/12/14 00:52:41;;;;;;;84.10;41.45;;;;;;;6.12;96.20;99159.22;5138554;27;20031;-64
2023/12/14 00:55:07;;;;;;;78.03;42.80;;;;;;;6.18;95.19;99163.88;5139543;27;20039;-66
2023/12/14 00:57:32;;;;;;;77.40;41.13;;;;;;;6.26;95.66;99161.38;5139234;27;20038;-67
2023/12/14 00:59:58;;;;;;;77.38;40.38;;;;;;;6.31;95.26;99154.69;5139675;27;20035;-64
2023/12/14 01:02:23;;;;;;;97.55;46.63;;;;;;;6.28;96.30;99152.34;5139026;27;20051;-66
2023/12/14 01:04:49;;;;;;;98.53;48.00;;;;;;;6.33;96.97;99146.66;5139326;27;20321;-64
2023/12/14 01:07:14;;;;;;;94.93;45.72;;;;;;;6.43;96.93;99131.63;5138778;27;20051;-64
2023/12/14 01:09:40;;;;;;;94.00;45.50;;;;;;;6.47;95.86;99132.97;5138465;27;20045;-64
2023/12/14 01:12:05;;;;;;;93.00;45.30;;;;;;;6.55;96.09;99116.44;5137893;27;20123;-66
2023/12/14 01:14:31;;;;;;;90.00;44.42;;;;;;;6.55;94.45;99124.31;5138669;27;20027;-64
2023/12/14 01:16:56;;;;;;;84.72;41.83;;;;;;;6.46;94.31;99107.66;5139447;27;20043;-64
2023/12/14 01:19:22;;;;;;;77.15;39.35;;;;;;;6.47;94.24;99101.41;5139631;27;20049;-64
2023/12/14 01:21:47;;;;;;;77.68;39.75;;;;;;;6.51;94.01;99105.38;5138907;27;20058;-64
2023/12/14 01:24:14;;;;;;;84.55;42.50;;;;;;;6.55;93.19;99108.53;5139095;27;20058;-64
2023/12/14 01:26:39;;;;;;;79.00;40.13;;;;;;;6.57;93.25;99119.75;5139283;27;20035;-66
2023/12/14 01:29:05;;;;;;;81.80;40.65;;;;;;;6.50;92.54;99126.59;5139425;27;20043;-66
2023/12/14 01:31:30;;;;;;;84.78;39.67;;;;;;;6.42;94.13;99129.13;5139318;27;20043;-64
2023/12/14 01:33:56;;;;;;;83.10;41.75;;;;;;;6.44;94.92;99120.13;5138837;27;20096;-64
2023/12/14 01:36:22;;;;;;;86.78;43.38;;;;;;;6.52;94.15;99119.38;5139431;27;20042;-64
2023/12/14 01:38:49;;;;;;;87.65;44.85;;;;;;;6.50;94.93;99127.41;5138722;27;20039;-64
2023/12/14 01:41:14;;;;;;;90.22;44.05;;;;;;;6.52;94.11;99109.69;5138596;27;20332;-63
2023/12/14 01:43:40;;;;;;;109.93;48.17;;;;;;;6.52;94.58;99106.22;5138674;27;20042;-65
2023/12/14 01:46:05;;;;;;;102.85;46.00;;;;;;;6.50;92.90;99109.00;5139029;27;20038;-66
2023/12/14 01:48:31;;;;;;;97.15;44.65;;;;;;;6.37;93.75;99129.59;5138650;27;20057;-66
2023/12/14 01:50:56;;;;;;;97.55;46.10;;;;;;;6.32;93.90;99124.78;5140900;27;20357;-64
2023/12/14 01:53:22;;;;;;;97.55;45.13;;;;;;;6.31;94.73;99117.03;5142424;27;20039;-64
2023/12/14 01:55:47;;;;;;;94.65;46.00;;;;;;;6.12;95.49;99102.22;5142546;27;20046;-65
2023/12/14 01:58:13;;;;;;;104.75;46.15;;;;;;;6.03;95.08;99121.50;5142578;27;20150;-64
2023/12/14 02:01:16;;;;;;;99.43;44.92;;;;;;;6.12;95.45;99109.28;5141508;27;20103;-64
2023/12/14 02:03:50;;;;;;;86.57;42.42;;;;;;;6.05;96.07;99109.03;5141471;27;20065;-65
2023/12/14 02:06:16;;;;;;;84.07;42.03;;;;;;;6.16;96.76;99106.19;5142259;27;20031;-66
2023/12/14 02:08:42;;;;;;;93.50;44.58;;;;;;;6.17;96.22;99117.53;5141982;27;20228;-66
2023/12/14 02:11:07;;;;;;;84.85;42.95;;;;;;;6.15;95.44;99111.59;5142152;27;20035;-66
2023/12/14 02:13:33;;;;;;;85.80;45.17;;;;;;;6.18;95.65;99113.94;5141732;27;20023;-66
2023/12/14 02:15:59;;;;;;;87.88;42.10;;;;;;;6.20;96.09;99119.88;5142055;27;20031;-64
2023/12/14 02:18:24;;;;;;;80.43;41.10;;;;;;;6.16;95.85;99113.25;5141799;27;20396;-66
2023/12/14 02:20:50;;;;;;;73.00;40.65;;;;;;;6.05;97.37;99109.03;5141586;27;20042;-66
2023/12/14 02:23:15;;;;;;;74.53;42.90;;;;;;;5.96;96.86;99120.44;5141570;27;20356;-64
2023/12/14 02:25:41;;;;;;;86.03;45.15;;;;;;;6.03;98.02;99100.47;5141548;27;20027;-66
2023/12/14 02:28:06;;;;;;;82.03;43.55;;;;;;;6.12;96.98;99098.75;5141841;27;20047;-64
2023/12/14 02:30:32;;;;;;;78.88;41.67;;;;;;;6.00;97.14;99111.28;5141796;27;20031;-63
2023/12/14 02:32:57;;;;;;;82.43;41.85;;;;;;;6.00;97.86;99098.16;5141932;27;20039;-66
2023/12/14 02:35:23;;;;;;;74.25;35.92;;;;;;;5.93;98.11;99102.34;5141885;27;20039;-66
2023/12/14 02:37:48;;;;;;;72.43;37.85;;;;;;;5.97;98.00;99104.53;5142320;27;20038;-66
2023/12/14 02:40:14;;;;;;;63.33;34.53;;;;;;;6.04;97.17;99108.22;5142232;27;20299;-64
2023/12/14 02:42:39;;;;;;;51.03;28.80;;;;;;;5.74;99.35;99098.81;5141564;27;20039;-63
2023/12/14 02:45:06;;;;;;;54.65;31.05;;;;;;;5.77;99.74;99093.28;5140672;27;20396;-64
2023/12/14 02:47:32;;;;;;;59.00;31.27;;;;;;;5.83;98.38;99096.28;5140840;27;20050;-66
2023/12/14 02:49:57;;;;;;;54.97;31.02;;;;;;;5.69;99.12;99093.19;5141187;27;20031;-64
2023/12/14 02:52:23;;;;;;;63.40;33.17;;;;;;;5.75;100.00;99082.09;5141096;27;20115;-66
2023/12/14 02:54:49;;;;;;;57.95;29.90;;;;;;;5.82;99.07;99095.47;5141093;27;20046;-66
2023/12/14 02:57:14;;;;;;;54.80;30.42;;;;;;;5.89;99.41;99095.69;5141087;27;20046;-66
2023/12/14 02:59:40;;;;;;;52.22;31.65;;;;;;;5.86;98.97;99091.56;5140912;27;20035;-63
2023/12/14 03:02:05;;;;;;;58.88;31.58;;;;;;;5.86;98.64;99090.75;5140320;27;20055;-64
2023/12/14 03:04:32;;;;;;;56.25;30.42;;;;;;;5.98;99.37;99092.22;5140778;27;20027;-66
2023/12/14 03:07:02;;;;;;;57.42;32.00;;;;;;;6.06;98.47;99101.00;5140421;27;20039;-65
2023/12/14 03:09:28;;;;;;;52.28;29.13;;;;;;;5.92;98.18;99108.56;5140995;27;20060;-64
2023/12/14 03:11:53;;;;;;;58.05;29.88;;;;;;;5.88;99.85;99112.44;5141078;27;20054;-64
2023/12/14 03:14:19;;;;;;;57.03;30.45;;;;;;;5.91;99.34;99113.00;5141683;27;20345;-66
2023/12/14 03:16:44;;;;;;;52.95;29.73;;;;;;;6.00;99.08;99106.84;5141705;27;20316;-64
2023/12/14 03:19:10;;;;;;;49.03;27.73;;;;;;;6.05;98.94;99112.50;5141354;27;20043;-63
2023/12/14 03:21:35;;;;;;;51.75;30.20;;;;;;;6.01;99.36;99102.44;5141251;27;20045;-66
2023/12/14 03:24:01;;;;;;;53.38;28.73;;;;;;;6.02;98.22;99114.59;5140792;27;20263;-66
2023/12/14 03:26:26;;;;;;;50.60;25.15;;;;;;;5.72;100.00;99113.09;5140366;27;20043;-66
2023/12/14 03:28:52;;;;;;;48.17;26.00;;;;;;;5.71;100.00;99112.25;5141006;27;20043;-66
2023/12/14 03:31:17;;;;;;;49.85;25.27;;;;;;;5.73;100.00;99112.09;5140701;27;20039;-66
2023/12/14 03:33:43;;;;;;;47.22;25.10;;;;;;;5.68;100.00;99099.41;5140997;27;20042;-66
2023/12/14 03:36:09;;;;;;;47.25;27.42;;;;;;;5.72;100.00;99098.16;5141172;27;20035;-64
2023/12/14 03:38:34;;;;;;;46.90;26.65;;;;;;;5.80;100.00;99097.41;5140754;27;20251;-65
2023/12/14 03:41:00;;;;;;;48.67;28.10;;;;;;;5.84;100.00;99100.56;5140416;27;20308;-66
2023/12/14 03:43:26;;;;;;;50.10;27.98;;;;;;;5.97;99.47;99109.78;5140300;27;20042;-66
2023/12/14 03:45:52;;;;;;;48.35;28.15;;;;;;;5.89;100.00;99114.94;5140527;27;20112;-65
2023/12/14 03:48:17;;;;;;;47.88;27.38;;;;;;;6.04;99.31;99123.16;5139961;27;20051;-64
2023/12/14 03:50:43;;;;;;;45.75;25.83;;;;;;;6.10;98.35;99114.69;5139569;27;20260;-66
2023/12/14 03:53:09;;;;;;;48.90;25.52;;;;;;;6.01;98.81;99105.06;5139031;27;20061;-66
2023/12/14 03:55:34;;;;;;;50.13;26.73;;;;;;;5.84;99.42;99106.66;5139584;27;20369;-66
2023/12/14 03:58:00;;;;;;;52.22;27.17;;;;;;;5.82;99.56;99113.84;5139743;27;20102;-65
2023/12/14 04:00:25;;;;;;;46.20;26.95;;;;;;;5.92;99.01;99096.25;5139909;27;20050;-66
2023/12/14 04:02:51;;;;;;;45.10;25.25;;;;;;;6.01;99.41;99092.75;5139355;27;20050;-64
2023/12/14 04:05:16;;;;;;;52.17;26.27;;;;;;;6.08;98.65;99101.69;5139817;27;20031;-66
2023/12/14 04:07:42;;;;;;;43.20;25.85;;;;;;;5.96;99.26;99091.53;5140191;27;20080;-64
2023/12/14 04:10:09;;;;;;;40.83;24.65;;;;;;;5.99;98.76;99089.44;5140230;27;20345;-65
2023/12/14 04:12:35;;;;;;;51.17;27.08;;;;;;;5.99;97.93;99099.13;5139220;27;20051;-66
2023/12/14 04:15:02;;;;;;;47.40;23.77;;;;;;;6.00;98.25;99106.03;5140050;27;20035;-66
2023/12/14 04:17:27;;;;;;;46.50;26.30;;;;;;;5.77;98.65;99123.97;5140309;27;20035;-66
2023/12/14 04:19:53;;;;;;;46.38;24.85;;;;;;;5.65;100.00;99114.63;5140243;27;20336;-64
2023/12/14 04:22:18;;;;;;;48.72;26.00;;;;;;;5.62;100.00;99107.88;5139671;27;20067;-65
2023/12/14 04:24:44;;;;;;;44.85;23.48;;;;;;;5.52;100.00;99083.47;5140188;27;20227;-66
2023/12/14 04:27:09;;;;;;;48.00;25.48;;;;;;;5.51;100.00;99104.63;5139868;27;20035;-64
2023/12/14 04:29:35;;;;;;;49.17;25.80;;;;;;;5.25;100.00;99102.66;5140209;27;20031;-64
2023/12/14 04:32:00;;;;;;;52.67;26.45;;;;;;;5.34;100.00;99117.53;5140059;27;20077;-66
2023/12/14 04:34:26;;;;;;;47.17;25.92;;;;;;;5.32;100.00;99105.53;5139894;27;20134;-64
2023/12/14 04:36:57;;;;;;;38.55;23.42;;;;;;;5.26;100.00;99100.84;5139721;27;20043;-66
2023/12/14 04:39:22;;;;;;;39.45;21.58;;;;;;;5.17;100.00;99101.69;5139622;27;20042;-63
2023/12/14 04:41:48;;;;;;;35.90;19.95;;;;;;;5.05;100.00;99106.28;5139655;27;20039;-64
2023/12/14 04:44:13;;;;;;;40.60;21.85;;;;;;;5.17;100.00;99096.44;5139407;27;20035;-65
2023/12/14 04:46:39;;;;;;;40.65;22.25;;;;;;;5.10;100.00;99098.81;5139809;27;20031;-66
2023/12/14 04:49:04;;;;;;;42.03;22.55;;;;;;;5.23;100.00;99083.59;5138834;27;20591;-66
2023/12/14 04:51:31;;;;;;;50.63;27.80;;;;;;;5.36;100.00;99097.22;5138104;27;20023;-65
2023/12/14 04:53:57;;;;;;;56.33;27.73;;;;;;;5.43;100.00;99089.59;5138477;27;20113;-64
2023/12/14 04:56:22;;;;;;;41.10;24.02;;;;;;;5.54;100.00;99093.81;5139192;27;20039;-64
2023/12/14 04:58:48;;;;;;;42.08;21.90;;;;;;;5.58;100.00;99087.31;5138924;27;20046;-67
2023/12/14 05:01:13;;;;;;;43.13;22.95;;;;;;;5.61;99.70;99087.00;5138500;27;20348;-65
2023/12/14 05:03:39;;;;;;;38.53;24.30;;;;;;;5.68;99.22;99086.28;5139384;27;20262;-66
2023/12/14 05:06:05;;;;;;;43.70;25.33;;;;;;;5.64;98.87;99090.19;5139820;27;20039;-66
2023/12/14 05:08:30;;;;;;;46.53;24.13;;;;;;;5.80;98.38;99089.53;5139946;27;20047;-66
2023/12/14 05:10:56;;;;;;;42.13;22.63;;;;;;;5.81;97.87;99098.25;5139415;27;20318;-66
2023/12/14 05:13:22;;;;;;;41.22;22.05;;;;;;;5.69;98.54;99095.00;5138442;27;20070;-66
2023/12/14 05:15:47;;;;;;;39.03;22.30;;;;;;;5.67;99.05;99099.56;5137415;27;20039;-64
2023/12/14 05:18:13;;;;;;;39.78;22.38;;;;;;;5.76;97.72;99093.44;5137719;27;20045;-66
2023/12/14 05:20:38;;;;;;;41.53;22.85;;;;;;;5.76;98.03;99088.16;5138002;27;20061;-66
2023/12/14 05:23:04;;;;;;;39.45;23.23;;;;;;;5.70;98.65;99083.50;5136745;27;20045;-66
2023/12/14 05:25:29;;;;;;;38.13;20.58;;;;;;;5.80;97.35;99067.69;5140840;27;20054;-66
2023/12/14 05:27:54;;;;;;;39.80;21.67;;;;;;;5.92;97.42;99077.88;5141078;27;20039;-64
2023/12/14 05:30:20;;;;;;;40.05;22.92;;;;;;;5.87;96.35;99085.34;5141839;27;20058;-64
2023/12/14 05:32:46;;;;;;;34.35;21.08;;;;;;;5.81;96.03;99088.56;5141474;27;20277;-64
2023/12/14 05:35:12;;;;;;;45.88;22.73;;;;;;;5.76;96.23;99086.38;5141129;27;20038;-64
2023/12/14 05:37:41;;;;;;;39.88;22.45;;;;;;;5.83;96.67;99091.03;5141266;27;20049;-66
2023/12/14 05:40:08;;;;;;;40.53;24.90;;;;;;;5.78;96.44;99088.84;5141129;27;20023;-65
2023/12/14 05:42:33;;;;;;;44.10;25.52;;;;;;;5.80;97.17;99097.41;5141651;27;20039;-64
2023/12/14 05:44:58;;;;;;;40.35;23.02;;;;;;;5.72;96.28;99097.31;5141616;27;20083;-64
2023/12/14 05:47:27;;;;;;;44.67;24.00;;;;;;;5.65;97.69;99094.44;5141283;27;20034;-64
2023/12/14 05:49:52;;;;;;;44.42;24.90;;;;;;;5.75;97.54;99097.03;5141451;27;20340;-65
2023/12/14 05:52:18;;;;;;;36.03;24.50;;;;;;;5.86;97.11;99103.88;5141094;27;20241;-64
2023/12/14 05:54:44;;;;;;;42.40;25.65;;;;;;;5.91;96.06;99112.19;5141786;27;20275;-66
2023/12/14 05:57:12;;;;;;;46.17;26.60;;;;;;;5.74;95.88;99111.97;5142066;27;20050;-64
2023/12/14 05:59:38;;;;;;;50.15;29.95;;;;;;;5.64;97.67;99111.19;5142903;27;20063;-64
2023/12/14 06:02:04;;;;;;;49.13;29.80;;;;;;;5.73;97.67;99117.34;5141979;27;20440;-64
2023/12/14 06:04:30;;;;;;;50.40;27.48;;;;;;;5.80;96.90;99104.47;5142538;27;20035;-66
2023/12/14 06:06:56;;;;;;;48.72;28.95;;;;;;;5.90;96.99;99118.41;5142473;27;20027;-64
2023/12/14 06:09:29;;;;;;;52.97;28.45;;;;;;;5.94;96.00;99125.84;5142388;27;20054;-66
2023/12/14 06:11:55;;;;;;;55.17;30.30;;;;;;;6.02;95.91;99130.38;5142085;27;20047;-66
2023/12/14 06:14:20;;;;;;;75.80;41.10;;;;;;;6.06;96.67;99140.44;5143118;27;20039;-65
2023/12/14 06:16:46;;;;;;;62.97;35.88;;;;;;;6.12;95.76;99130.28;5142323;27;20321;-66
2023/12/14 06:19:11;;;;;;;66.45;36.25;;;;;;;6.12;95.94;99122.41;5141367;27;20041;-63
2023/12/14 06:21:37;;;;;;;61.65;33.03;;;;;;;6.11;96.15;99132.09;5142136;27;20042;-66
2023/12/14 06:24:03;;;;;;;66.13;36.63;;;;;;;6.06;94.96;99129.09;5141341;27;20050;-63
2023/12/14 06:26:28;;;;;;;65.20;36.95;;;;;;;6.03;96.17;99113.63;5141508;27;20032;-64
2023/12/14 06:28:54;;;;;;;60.42;35.85;;;;;;;6.07;96.59;99118.44;5141002;27;20058;-64
2023/12/14 06:31:21;;;;;;;55.13;32.85;;;;;;;6.03;96.45;99130.22;5141310;27;20258;-66
2023/12/14 06:33:48;;;;;;;64.90;36.28;;;;;;;5.86;97.24;99112.59;5141227;27;20046;-63
2023/12/14 06:36:17;;;;;;;62.25;37.15;;;;;;;5.96;97.49;99123.06;5140559;27;20034;-66
2023/12/14 06:38:42;;;;;;;61.10;36.03;;;;;;;6.04;97.35;99129.25;5141693;27;20035;-66
2023/12/14 06:41:08;;;;;;;68.43;37.80;;;;;;;5.99;98.22;99142.00;5142095;27;20336;-66
2023/12/14 06:43:34;;;;;;;88.03;56.08;;;;;;;6.01;98.48;99113.75;5141708;27;20035;-63
2023/12/14 06:46:00;;;;;;;87.18;57.75;;;;;;;6.12;97.76;99130.28;5141272;27;20075;-63
2023/12/14 06:48:25;;;;;;;81.07;47.38;;;;;;;6.02;97.80;99140.88;5141092;27;20035;-64
2023/12/14 06:50:51;;;;;;;70.47;38.50;;;;;;;6.02;98.20;99151.38;5140610;27;20298;-66
2023/12/14 06:53:16;;;;;;;90.32;49.38;;;;;;;6.11;98.15;99141.78;5141386;27;20056;-64
2023/12/14 06:55:42;;;;;;;77.45;44.17;;;;;;;6.27;98.02;99141.97;5141924;27;20190;-65
2023/12/14 06:58:11;;;;;;;77.22;47.72;;;;;;;6.31;97.42;99148.59;5142003;27;20039;-64
2023/12/14 07:00:39;;;;;;;56.13;33.47;;;;;;;6.40;97.68;99148.53;5141246;27;20070;-66
2023/12/14 07:03:05;;;;;;;51.35;27.15;;;;;;;6.18;97.95;99148.09;5141358;27;20039;-63
2023/12/14 07:05:32;;;;;;;46.47;28.38;;;;;;;6.34;97.80;99141.22;5140807;27;20042;-64
2023/12/14 07:07:57;;;;;;;50.78;28.38;;;;;;;6.39;97.47;99111.88;5140381;27;20035;-64
2023/12/14 07:10:23;;;;;;;46.63;27.90;;;;;;;6.49;97.12;99119.66;5140475;27;20131;-64
2023/12/14 07:12:48;;;;;;;49.75;28.52;;;;;;;6.58;97.37;99126.66;5140441;27;20058;-65
2023/12/14 07:15:14;;;;;;;62.30;32.80;;;;;;;6.56;97.35;99128.59;5141395;27;20083;-64
2023/12/14 07:17:39;;;;;;;116.05;79.10;;;;;;;6.55;98.21;99127.78;5141204;27;20221;-66
2023/12/14 07:20:06;;;;;;;66.53;40.88;;;;;;;6.57;98.14;99119.75;5141081;27;20031;-66
2023/12/14 07:22:32;;;;;;;51.08;32.08;;;;;;;6.48;98.69;99120.66;5141370;27;20031;-64
2023/12/14 07:24:57;;;;;;;48.97;30.83;;;;;;;6.30;100.00;99116.22;5141247;27;20258;-64
2023/12/14 07:27:23;;;;;;;52.20;29.33;;;;;;;6.46;100.00;99135.75;5140799;27;20038;-64
2023/12/14 07:29:48;;;;;;;53.42;30.52;;;;;;;6.52;100.00;99141.22;5141175;27;20087;-66
2023/12/14 07:32:13;;;;;;;55.50;32.65;;;;;;;6.52;100.00;99140.41;5140769;27;20031;-65
2023/12/14 07:34:39;;;;;;;48.08;30.17;;;;;;;6.42;100.00;99129.97;5141083;27;20031;-66
2023/12/14 07:37:05;;;;;;;47.63;29.25;;;;;;;6.59;100.00;99123.03;5140919;27;20084;-64
2023/12/14 07:39:31;;;;;;;47.03;24.60;;;;;;;6.55;100.00;99129.59;5140296;27;20212;-63
2023/12/14 07:41:57;;;;;;;45.35;30.63;;;;;;;6.63;100.00;99154.16;5139613;27;20039;-66
2023/12/14 07:44:24;;;;;;;46.20;26.95;;;;;;;6.70;100.00;99138.59;5140431;27;20034;-64
2023/12/14 07:46:50;;;;;;;47.22;25.77;;;;;;;6.81;100.00;99133.09;5140827;27;20268;-66
2023/12/14 07:49:20;;;;;;;45.40;23.88;;;;;;;6.81;100.00;99135.72;5140019;27;20031;-64
2023/12/14 07:51:46;;;;;;;61.33;28.25;;;;;;;6.88;100.00;99135.94;5139226;27;20279;-64
2023/12/14 07:54:11;;;;;;;39.00;24.38;;;;;;;6.75;100.00;99143.41;5139584;27;20039;-66
2023/12/14 07:56:37;;;;;;;39.45;24.38;;;;;;;6.94;100.00;99154.56;5140554;27;20138;-66
2023/12/14 07:59:06;;;;;;;45.20;25.38;;;;;;;7.03;100.00;99140.47;5140425;27;20355;-66
2023/12/14 08:01:32;;;;;;;39.25;25.02;;;;;;;7.08;100.00;99150.56;5139733;27;20038;-63
2023/12/14 08:03:57;;;;;;;48.47;24.63;;;;;;;7.00;100.00;99139.97;5139999;27;20050;-64
2023/12/14 08:06:23;;;;;;;36.35;21.17;;;;;;;6.99;100.00;99162.00;5140353;27;20034;-62
2023/12/14 08:08:48;;;;;;;38.58;20.33;;;;;;;7.01;100.00;99165.31;5139345;27;20118;-64
2023/12/14 08:11:14;;;;;;;33.63;21.13;;;;;;;7.09;100.00;99154.00;5140316;27;20046;-64
2023/12/14 08:13:40;;;;;;;29.15;18.15;;;;;;;7.21;100.00;99148.34;5140098;27;20031;-64
2023/12/14 08:16:07;;;;;;;30.75;19.45;;;;;;;7.35;100.00;99152.25;5140266;27;20221;-64
2023/12/14 08:18:32;;;;;;;48.58;24.50;;;;;;;7.49;100.00;99151.66;5140185;27;20068;-64
2023/12/14 08:20:58;;;;;;;38.38;22.60;;;;;;;7.60;100.00;99153.19;5140174;27;20031;-62
2023/12/14 08:23:27;;;;;;;36.92;19.98;;;;;;;7.67;100.00;99146.31;5139970;27;20039;-65
2023/12/14 08:25:53;;;;;;;41.80;22.42;;;;;;;7.67;100.00;99154.22;5140049;27;20224;-63
2023/12/14 08:28:18;;;;;;;38.72;21.35;;;;;;;7.78;100.00;99146.03;5139078;27;20232;-65
2023/12/14 08:30:44;;;;;;;43.72;24.67;;;;;;;7.77;100.00;99141.72;5138920;27;20054;-64
2023/12/14 08:33:09;;;;;;;37.05;21.27;;;;;;;7.82;100.00;99154.44;5138943;27;20038;-65
2023/12/14 08:35:35;;;;;;;39.28;21.42;;;;;;;7.95;100.00;99160.09;5139957;27;20477;-64
2023/12/14 08:38:00;;;;;;;38.42;21.25;;;;;;;7.97;100.00;99139.66;5139632;27;20065;-66
2023/12/14 08:40:26;;;;;;;37.53;20.55;;;;;;;8.05;100.00;99150.22;5138654;27;20035;-66
2023/12/14 08:42:51;;;;;;;65.60;28.02;;;;;;;7.96;100.00;99145.91;5138633;27;20051;-65
2023/12/14 08:45:17;;;;;;;82.53;36.03;;;;;;;7.94;100.00;99153.16;5138556;27;20065;-66
2023/12/14 08:47:42;;;;;;;36.35;20.00;;;;;;;8.03;100.00;99152.22;5138188;27;20387;-66
2023/12/14 08:50:08;;;;;;;62.88;30.88;;;;;;;7.87;100.00;99150.34;5138998;27;20031;-65
2023/12/14 08:52:34;;;;;;;48.42;26.13;;;;;;;8.03;100.00;99154.84;5138957;27;20027;-64
2023/12/14 08:54:59;;;;;;;40.08;23.42;;;;;;;8.05;100.00;99139.69;5139336;27;20038;-65
2023/12/14 08:57:25;;;;;;;33.83;19.95;;;;;;;8.06;100.00;99146.63;5139778;27;20221;-64
2023/12/14 08:59:50;;;;;;;39.92;24.08;;;;;;;8.09;100.00;99146.28;5138765;27;20065;-64
2023/12/14 09:02:15;;;;;;;33.72;18.90;;;;;;;8.07;100.00;99134.25;5138717;27;20059;-66
2023/12/14 09:04:41;;;;;;;38.33;20.83;;;;;;;8.03;100.00;99165.38;5138984;27;20043;-66
2023/12/14 09:07:06;;;;;;;36.03;20.67;;;;;;;7.93;100.00;99154.97;5138501;27;20046;-66
2023/12/14 09:09:32;;;;;;;32.63;19.65;;;;;;;8.15;100.00;99145.66;5120003;27;20352;-64
2023/12/14 09:11:58;;;;;;;27.10;15.35;;;;;;;8.20;100.00;99146.00;5138192;27;20039;-64
2023/12/14 09:14:23;;;;;;;24.73;15.02;;;;;;;8.36;100.00;99137.34;5138215;27;20353;-66
2023/12/14 09:16:49;;;;;;;27.95;16.55;;;;;;;8.50;100.00;99134.06;5138491;27;20050;-66
2023/12/14 09:19:14;;;;;;;32.65;18.50;;;;;;;8.54;100.00;99132.75;5138883;27;20248;-66
2023/12/14 09:21:40;;;;;;;46.33;23.95;;;;;;;8.61;100.00;99119.72;5139324;27;20088;-66
2023/12/14 09:24:05;;;;;;;36.08;20.75;;;;;;;8.56;100.00;99096.47;5139333;27;20039;-66
2023/12/14 09:26:31;;;;;;;34.67;21.02;;;;;;;8.80;100.00;99121.19;5138671;27;20080;-66
2023/12/14 09:28:56;;;;;;;38.78;21.08;;;;;;;8.88;100.00;99100.06;5138834;27;20066;-66
2023/12/14 09:31:22;;;;;;;32.58;18.40;;;;;;;9.02;100.00;99093.28;5139245;27;20031;-64
2023/12/14 09:33:47;;;;;;;36.15;19.75;;;;;;;9.07;100.00;99098.88;5139243;27;20050;-64
2023/12/14 09:36:13;;;;;;;32.15;18.98;;;;;;;8.96;100.00;99086.88;5139042;27;20333;-66
2023/12/14 09:38:39;;;;;;;31.27;18.38;;;;;;;9.08;100.00;99098.72;5138530;27;20039;-65
2023/12/14 09:41:07;;;;;;;33.25;18.98;;;;;;;9.08;100.00;99106.66;5139387;27;20067;-64
2023/12/14 09:43:33;;;;;;;30.77;19.23;;;;;;;9.11;100.00;99092.28;5139446;27;20043;-64
2023/12/14 09:45:59;;;;;;;31.30;17.98;;;;;;;9.01;100.00;99081.06;5138699;27;20092;-64
2023/12/14 09:48:25;;;;;;;32.85;19.48;;;;;;;9.00;100.00;99080.25;5139090;27;20039;-66
2023/12/14 09:50:51;;;;;;;37.33;20.10;;;;;;;9.10;100.00;99074.78;5138959;27;20037;-66
2023/12/14 09:53:18;;;;;;;35.13;20.25;;;;;;;9.20;100.00;99072.78;5138857;27;20035;-65
2023/12/14 09:55:43;;;;;;;44.78;27.98;;;;;;;9.22;100.00;99078.72;5138271;27;20090;-66
2023/12/14 09:58:10;;;;;;;55.03;35.03;;;;;;;9.27;100.00;99074.56;5137966;27;20031;-63
2023/12/14 10:00:38;;;;;;;60.05;40.75;;;;;;;9.28;100.00;99078.03;5137803;27;20283;-64
2023/12/14 10:03:26;;;;;;;55.47;34.95;;;;;;;9.42;100.00;99066.78;5138012;27;20039;-66
2023/12/14 10:05:52;;;;;;;45.85;26.02;;;;;;;9.47;100.00;99071.56;5138248;27;20070;-66
2023/12/14 10:08:18;;;;;;;28.98;18.30;;;;;;;9.51;100.00;99067.56;5137984;27;20043;-66
2023/12/14 10:10:46;;;;;;;30.15;18.63;;;;;;;9.50;100.00;99071.22;5139383;27;20038;-64
2023/12/14 10:13:12;;;;;;;32.85;19.13;;;;;;;9.54;100.00;99065.41;5142313;27;20063;-65
2023/12/14 10:15:46;;;;;;;32.50;17.48;;;;;;;9.59;100.00;99057.78;5142180;27;20031;-66
2023/12/14 10:18:11;;;;;;;;;;;;;;;9.65;100.00;99050.16;5143353;27;20027;-66
2023/12/14 10:20:37;;;;;;;30.70;17.02;;;;;;;9.52;100.00;99053.38;5141739;27;19919;-66
2023/12/14 10:23:07;;;;;;;26.48;16.08;;;;;;;9.37;100.00;99047.16;5142004;27;20054;-63
2023/12/14 10:25:33;;;;;;;30.45;17.35;;;;;;;9.53;100.00;99039.16;5142217;27;20065;-65
2023/12/14 10:28:00;;;;;;;29.23;15.88;;;;;;;9.69;100.00;99038.25;5142023;27;20031;-62
2023/12/14 10:30:27;;;;;;;28.08;15.48;;;;;;;9.77;100.00;99039.03;5142265;27;20035;-62
2023/12/14 10:32:53;;;;;;;24.70;15.52;;;;;;;9.74;99.22;99020.06;5141733;27;20329;-62
2023/12/14 10:35:21;;;;;;;31.20;17.25;;;;;;;9.91;99.15;99034.81;5141642;27;20165;-66
2023/12/14 10:37:51;;;;;;;28.00;16.60;;;;;;;9.99;99.48;99023.38;5141211;27;20035;-65
2023/12/14 10:40:17;;;;;;;29.90;17.52;;;;;;;10.04;100.00;99016.53;5141288;27;20069;-64
2023/12/14 10:42:44;;;;;;;31.40;18.08;;;;;;;10.04;98.91;99008.63;5140661;27;20043;-62
2023/12/14 10:45:16;;;;;;;30.75;17.45;;;;;;;10.08;99.15;99011.72;5140809;27;20055;-64
2023/12/14 10:47:46;;;;;;;29.77;20.00;;;;;;;10.16;99.02;99024.88;5141540;27;20299;-64
2023/12/14 10:50:12;;;;;;;47.55;27.23;;;;;;;10.12;99.92;99015.66;5141361;27;20206;-63
2023/12/14 10:52:41;;;;;;;45.65;27.80;;;;;;;10.15;100.00;99023.25;5140978;27;20046;-64
2023/12/14 10:55:36;;;;;;;46.53;28.30;;;;;;;10.20;100.00;99018.28;5140879;27;20212;-64
2023/12/14 10:58:04;;;;;;;44.17;27.73;;;;;;;10.22;100.00;99035.63;5137989;27;20070;-64
2023/12/14 11:00:31;;;;;;;49.92;29.23;;;;;;;10.20;100.00;99034.16;5140809;27;20241;-62
2023/12/14 11:02:59;;;;;;;51.47;30.08;;;;;;;10.27;100.00;99013.09;5141569;27;20039;-62
2023/12/14 11:05:29;;;;;;;53.92;32.08;;;;;;;10.35;100.00;99018.31;5141754;27;20039;-64
2023/12/14 11:08:00;;;;;;;50.33;29.63;;;;;;;10.38;100.00;99021.44;5141699;27;20335;-65
2023/12/14 11:10:51;;;;;;;51.90;30.23;;;;;;;10.37;100.00;99019.78;5141386;27;20317;-63
2023/12/14 11:13:17;;;;;;;53.67;32.78;;;;;;;10.35;99.74;99008.56;5141830;27;20035;-64
2023/12/14 11:15:52;;;;;;;54.42;31.45;;;;;;;10.35;100.00;99000.63;5141211;27;20323;-64
2023/12/14 11:18:17;;;;;;;54.03;31.42;;;;;;;10.36;100.00;98999.63;5141167;27;20257;-62